Terminal Aerodrome Forecast
Issued by NWS

Home | Current Version | Previous Version | Text Only | Print | Product List | Glossary On
Versions: 1 2 3 4 5 6 7 8 9 10 11 12
000
FTUS45 KABQ 112321
TAFROW
TAF
KROW 112321Z 1200/1224 VRB05KT P6SM BKN250
     FM120200 36007KT P6SM BKN250
     FM121200 32005KT P6SM SCT250
     FM121800 18008KT P6SM SCT250=

USA.gov is the U.S. government's official web portal to all federal, state and local government web resources and services.